createdAt,value
2023-02-12T00:01:29.290Z,98634.55
2023-02-12T00:04:02.142Z,98637.45
2023-02-12T00:06:34.132Z,98636.51
2023-02-12T00:09:06.612Z,98636.66
2023-02-12T00:11:38.654Z,98641.14
2023-02-12T00:14:10.946Z,98644.77
2023-02-12T00:16:44.002Z,98644.65
2023-02-12T00:19:16.744Z,98644.56
2023-02-12T00:21:48.932Z,98644.00
2023-02-12T00:24:21.784Z,98643.99
2023-02-12T00:26:53.791Z,98646.70
2023-02-12T00:29:26.211Z,98646.55
2023-02-12T00:31:58.845Z,98643.45
2023-02-12T00:34:33.095Z,98647.08
2023-02-12T00:37:05.571Z,98647.96
2023-02-12T00:39:38.470Z,98653.28
2023-02-12T00:42:10.891Z,98648.02
2023-02-12T00:44:43.080Z,98655.31
2023-02-12T00:47:17.315Z,98659.64
2023-02-12T00:49:49.551Z,98660.19
2023-02-12T00:52:22.689Z,98658.79
2023-02-12T00:54:55.700Z,98658.60
2023-02-12T00:57:28.302Z,98664.73
2023-02-12T01:00:02.260Z,98665.61
2023-02-12T01:02:34.637Z,98668.38
2023-02-12T01:05:07.310Z,98665.60
2023-02-12T01:07:41.114Z,98664.75
2023-02-12T01:10:14.124Z,98670.71
2023-02-12T01:12:46.715Z,98671.73
2023-02-12T01:15:20.117Z,98673.32
2023-02-12T01:17:54.693Z,98674.98
2023-02-12T01:20:28.324Z,98678.06
2023-02-12T01:23:01.865Z,98681.98
2023-02-12T01:25:32.288Z,98684.04
2023-02-12T01:28:04.152Z,98688.41
2023-02-12T01:30:36.477Z,98693.86
2023-02-12T01:33:08.994Z,98698.48
2023-02-12T01:35:42.886Z,98698.17
2023-02-12T01:38:15.375Z,98701.27
2023-02-12T01:40:47.735Z,98708.80
2023-02-12T01:43:19.728Z,98712.03
2023-02-12T01:45:56.156Z,98718.89
2023-02-12T01:48:50.276Z,98723.67
2023-02-12T01:51:26.084Z,98727.06
2023-02-12T01:54:00.739Z,98732.52
2023-02-12T01:56:34.057Z,98735.05
2023-02-12T01:59:06.868Z,98740.55
2023-02-12T02:01:39.366Z,98742.27
2023-02-12T02:04:17.518Z,98739.16
2023-02-12T02:06:54.660Z,98742.58
2023-02-12T02:09:30.100Z,98742.52
2023-02-12T02:12:20.895Z,98746.20
2023-02-12T02:14:56.196Z,98751.77
2023-02-12T02:17:48.737Z,98753.52
2023-02-12T02:20:44.437Z,98755.24
2023-02-12T02:24:00.334Z,98769.20
2023-02-12T02:27:04.691Z,98774.54
2023-02-12T02:29:48.396Z,98782.46
2023-02-12T02:32:25.058Z,98798.13
2023-02-12T02:35:03.972Z,98805.13
2023-02-12T02:37:42.316Z,98811.14
2023-02-12T02:40:19.782Z,98807.49
2023-02-12T02:42:56.803Z,98805.50
2023-02-12T02:45:35.211Z,98813.04
2023-02-12T02:48:11.952Z,98814.95
2023-02-12T02:50:49.423Z,98804.52
2023-02-12T02:53:28.342Z,98815.43
2023-02-12T02:56:04.949Z,98822.55
2023-02-12T02:58:41.093Z,98821.06
2023-02-12T03:01:18.314Z,98825.56
2023-02-12T03:03:55.100Z,98829.98
2023-02-12T03:06:32.289Z,98824.19
2023-02-12T03:09:11.511Z,98822.79
2023-02-12T03:11:43.842Z,98825.68
2023-02-12T03:14:22.720Z,98831.12
2023-02-12T03:17:01.630Z,98841.86
2023-02-12T03:19:38.773Z,98853.23
2023-02-12T03:22:14.341Z,98850.03
2023-02-12T03:24:49.912Z,98851.61
2023-02-12T03:27:28.146Z,98860.60
2023-02-12T03:30:01.457Z,98872.05
2023-02-12T03:32:41.745Z,98879.45
2023-02-12T03:35:19.349Z,98877.52
2023-02-12T03:37:57.735Z,98882.20
2023-02-12T03:40:35.674Z,98886.73
2023-02-12T03:43:11.628Z,98898.05
2023-02-12T03:45:48.948Z,98892.69
2023-02-12T03:48:28.011Z,98895.73
2023-02-12T03:51:05.470Z,98904.10
2023-02-12T03:53:38.134Z,98923.86
2023-02-12T03:56:15.155Z,98923.73
2023-02-12T03:58:47.964Z,98933.90
2023-02-12T04:01:21.060Z,98941.75
2023-02-12T04:03:53.779Z,98943.71
2023-02-12T04:06:29.032Z,98937.66
2023-02-12T04:09:08.744Z,98943.08
2023-02-12T04:11:55.858Z,98954.27
2023-02-12T04:14:36.301Z,98962.77
2023-02-12T04:17:11.562Z,98969.45
2023-02-12T04:19:55.132Z,98974.79
2023-02-12T04:22:39.629Z,98975.56
2023-02-12T04:25:22.781Z,98980.83
2023-02-12T04:28:03.480Z,98985.52
2023-02-12T04:30:40.264Z,98990.14
2023-02-12T04:33:18.345Z,98996.74
2023-02-12T04:35:54.856Z,99001.82
2023-02-12T04:38:31.195Z,99008.70
2023-02-12T04:41:04.653Z,99014.36
2023-02-12T04:43:38.901Z,99024.84
2023-02-12T04:46:11.971Z,99031.45
2023-02-12T04:48:56.753Z,99027.52
2023-02-12T04:51:28.929Z,99035.15
2023-02-12T04:54:01.275Z,99038.27
2023-02-12T04:56:33.447Z,99040.47
2023-02-12T04:59:05.925Z,99039.00
2023-02-12T05:01:40.249Z,99043.69
2023-02-12T05:04:14.513Z,99046.08
2023-02-12T05:06:47.595Z,99055.30
2023-02-12T05:09:21.977Z,99062.73
2023-02-12T05:11:54.088Z,99068.70
2023-02-12T05:14:27.455Z,99076.32
2023-02-12T05:16:59.547Z,99078.03
2023-02-12T05:19:31.730Z,99076.90
2023-02-12T05:22:03.848Z,99075.07
2023-02-12T05:24:35.981Z,99078.17
2023-02-12T05:27:09.557Z,99079.73
2023-02-12T05:29:41.800Z,99085.00
2023-02-12T05:32:14.098Z,99094.77
2023-02-12T05:34:46.459Z,99100.27
2023-02-12T05:37:18.626Z,99108.20
2023-02-12T05:39:52.185Z,99121.74
2023-02-12T05:42:24.362Z,99128.38
2023-02-12T05:44:56.863Z,99133.11
2023-02-12T05:47:29.657Z,99136.91
2023-02-12T05:50:01.886Z,99145.66
2023-02-12T05:52:34.132Z,99147.83
2023-02-12T05:55:06.902Z,99155.63
2023-02-12T05:57:39.194Z,99154.68
2023-02-12T06:00:13.454Z,99155.35
2023-02-12T06:02:45.519Z,99157.72
2023-02-12T06:05:17.909Z,99158.43
2023-02-12T06:07:49.993Z,99160.59
2023-02-12T06:10:22.731Z,99164.62
2023-02-12T06:12:58.441Z,99167.55
2023-02-12T06:15:30.578Z,99174.39
2023-02-12T06:18:03.002Z,99184.75
2023-02-12T06:20:35.022Z,99194.23
2023-02-12T06:23:07.091Z,99203.73
2023-02-12T06:25:40.223Z,99212.41
2023-02-12T06:28:12.959Z,99217.12
2023-02-12T06:30:45.764Z,99218.07
2023-02-12T06:33:18.233Z,99221.08
2023-02-12T06:35:50.289Z,99225.18
2023-02-12T06:38:23.121Z,99235.05
2023-02-12T06:40:55.235Z,99234.38
2023-02-12T06:43:27.537Z,99236.23
2023-02-12T06:46:04.225Z,99238.56
2023-02-12T06:48:39.736Z,99244.29
2023-02-12T06:51:14.856Z,99246.86
2023-02-12T06:53:48.076Z,99245.98
2023-02-12T06:56:21.881Z,99243.70
2023-02-12T06:58:59.168Z,99249.61
2023-02-12T07:01:33.182Z,99249.59
2023-02-12T07:04:06.994Z,99253.24
2023-02-12T07:06:40.604Z,99260.83
2023-02-12T07:09:13.586Z,99261.46
2023-02-12T07:11:46.882Z,99262.10
2023-02-12T07:14:20.921Z,99265.16
2023-02-12T07:16:56.955Z,99272.80
2023-02-12T07:19:29.896Z,99270.87
2023-02-12T07:22:02.238Z,99271.70
2023-02-12T07:24:34.567Z,99274.73
2023-02-12T07:27:09.762Z,99281.98
2023-02-12T07:29:42.712Z,99287.55
2023-02-12T07:32:15.141Z,99292.21
2023-02-12T07:34:48.668Z,99298.23
2023-02-12T07:37:23.235Z,99296.01
2023-02-12T07:39:55.158Z,99296.16
2023-02-12T07:42:27.297Z,99303.30
2023-02-12T07:44:59.317Z,99307.04
2023-02-12T07:47:31.451Z,99311.19
2023-02-12T07:50:05.387Z,99313.73
2023-02-12T07:52:35.779Z,99319.86
2023-02-12T07:55:08.950Z,99326.69
2023-02-12T07:57:41.070Z,99330.29
2023-02-12T08:00:15.158Z,99329.48
2023-02-12T08:02:52.305Z,99327.64
2023-02-12T08:05:24.356Z,99328.41
2023-02-12T08:07:56.679Z,99333.36
2023-02-12T08:10:31.415Z,99344.16
2023-02-12T08:13:05.388Z,99346.60
2023-02-12T08:15:37.558Z,99345.84
2023-02-12T08:18:10.134Z,99346.16
2023-02-12T08:20:42.917Z,99352.20
2023-02-12T08:23:15.050Z,99345.63
2023-02-12T08:25:47.267Z,99346.29
2023-02-12T08:28:34.420Z,99345.37
2023-02-12T08:31:12.644Z,99342.58
2023-02-12T08:33:45.834Z,99344.58
2023-02-12T08:36:23.387Z,99339.98
2023-02-12T08:38:59.099Z,99340.32
2023-02-12T08:41:33.165Z,99345.35
2023-02-12T08:44:06.788Z,99347.20
2023-02-12T08:46:37.900Z,99351.44
2023-02-12T08:49:13.132Z,99356.22
2023-02-12T08:51:48.911Z,99359.48
2023-02-12T08:54:22.925Z,99362.05
2023-02-12T08:56:58.320Z,99363.65
2023-02-12T08:59:31.235Z,99366.34
2023-02-12T09:02:04.617Z,99372.63
2023-02-12T09:04:37.602Z,99377.40
2023-02-12T09:07:11.027Z,99375.36
2023-02-12T09:09:43.182Z,99378.16
2023-02-12T09:12:15.316Z,99386.16
2023-02-12T09:14:47.658Z,99392.14
2023-02-12T09:17:19.980Z,99398.55
2023-02-12T09:19:52.062Z,99395.81
2023-02-12T09:22:24.050Z,99391.66
2023-02-12T09:24:58.422Z,99391.29
2023-02-12T09:27:31.423Z,99400.36
2023-02-12T09:30:06.608Z,99403.95
2023-02-12T09:32:38.648Z,99410.77
2023-02-12T09:35:13.209Z,99404.64
2023-02-12T09:37:46.296Z,99408.82
2023-02-12T09:40:27.218Z,99418.61
2023-02-12T09:43:12.652Z,99417.89
2023-02-12T09:45:51.428Z,99421.81
2023-02-12T09:48:49.776Z,99421.30
2023-02-12T09:51:22.591Z,99427.36
2023-02-12T09:54:02.232Z,99433.56
2023-02-12T09:56:35.915Z,99433.58
2023-02-12T09:59:10.460Z,99429.52
2023-02-12T10:01:42.942Z,99429.56
2023-02-12T10:04:16.572Z,99421.73
2023-02-12T10:06:50.796Z,99419.23
2023-02-12T10:09:46.489Z,99428.25
2023-02-12T10:12:31.469Z,99428.39
2023-02-12T10:15:30.064Z,99430.52
2023-02-12T10:18:18.098Z,99434.08
2023-02-12T10:21:11.050Z,99434.52
2023-02-12T10:24:07.741Z,99436.48
2023-02-12T10:26:43.701Z,99438.11
2023-02-12T10:29:21.160Z,99439.80
2023-02-12T10:32:02.003Z,99440.61
2023-02-12T10:34:38.460Z,99441.32
2023-02-12T10:37:20.767Z,99441.55
2023-02-12T10:39:58.592Z,99440.87
2023-02-12T10:42:40.782Z,99442.33
2023-02-12T10:45:20.494Z,99445.59
2023-02-12T10:48:05.188Z,99436.14
2023-02-12T10:50:51.276Z,99435.75
2023-02-12T10:53:25.745Z,99442.62
2023-02-12T10:56:15.689Z,99439.47
2023-02-12T10:58:55.990Z,99439.77
2023-02-12T11:01:30.980Z,99433.93
2023-02-12T11:04:21.792Z,99433.45
2023-02-12T11:07:03.849Z,99436.70
2023-02-12T11:09:45.713Z,99445.79
2023-02-12T11:12:36.014Z,99452.58
2023-02-12T11:15:15.969Z,99455.02
2023-02-12T11:17:57.464Z,99453.89
2023-02-12T11:20:34.441Z,99450.70
2023-02-12T11:23:08.749Z,99453.28
2023-02-12T11:25:56.648Z,99452.43
2023-02-12T11:28:29.835Z,99450.48
2023-02-12T11:31:05.181Z,99450.79
2023-02-12T11:33:39.239Z,99445.76
2023-02-12T11:36:23.382Z,99450.84
2023-02-12T11:38:55.280Z,99447.33
2023-02-12T11:41:34.778Z,99450.52
2023-02-12T11:44:13.648Z,99448.48
2023-02-12T11:46:52.100Z,99448.03
2023-02-12T11:49:29.067Z,99441.34
2023-02-12T11:52:05.187Z,99446.75
2023-02-12T11:54:44.120Z,99447.19
2023-02-12T11:57:39.677Z,99444.10
2023-02-12T12:00:18.915Z,99443.58
2023-02-12T12:03:03.219Z,99441.58
2023-02-12T12:05:40.343Z,99443.94
2023-02-12T12:08:22.504Z,99436.98
2023-02-12T12:10:59.992Z,99437.25
2023-02-12T12:13:37.444Z,99436.14
2023-02-12T12:16:32.113Z,99438.63
2023-02-12T12:19:27.212Z,99438.85
2023-02-12T12:22:07.033Z,99438.23
2023-02-12T12:24:47.116Z,99437.12
2023-02-12T12:27:42.644Z,99440.60
2023-02-12T12:30:24.292Z,99434.73
2023-02-12T12:32:58.736Z,99433.70
2023-02-12T12:35:40.785Z,99434.16
2023-02-12T12:38:29.968Z,99435.83
2023-02-12T12:41:12.024Z,99435.57
2023-02-12T12:43:56.914Z,99433.66
2023-02-12T12:46:36.586Z,99430.58
2023-02-12T12:49:24.228Z,99433.13
2023-02-12T12:52:12.402Z,99439.41
2023-02-12T12:55:01.074Z,99434.18
2023-02-12T12:57:48.115Z,99435.92
2023-02-12T13:00:31.594Z,99439.84
2023-02-12T13:03:41.217Z,99438.95
2023-02-12T13:06:31.866Z,99435.39
2023-02-12T13:09:26.638Z,99432.46
2023-02-12T13:12:22.817Z,99433.08
2023-02-12T13:15:04.638Z,99424.62
2023-02-12T13:17:46.335Z,99426.50
2023-02-12T13:20:24.889Z,99434.94
2023-02-12T13:23:03.025Z,99431.42
2023-02-12T13:25:41.939Z,99433.31
2023-02-12T13:28:23.139Z,99433.04
2023-02-12T13:30:58.085Z,99435.02
2023-02-12T13:33:44.010Z,99437.67
2023-02-12T13:36:17.168Z,99438.48
2023-02-12T13:38:53.803Z,99439.71
2023-02-12T13:41:27.524Z,99440.15
2023-02-12T13:44:09.065Z,99434.52
2023-02-12T13:46:53.862Z,99436.27
2023-02-12T13:49:39.914Z,99436.13
2023-02-12T13:52:21.039Z,99439.66
2023-02-12T13:55:07.907Z,99439.95
2023-02-12T13:57:41.737Z,99439.48
2023-02-12T14:00:45.035Z,99443.29
2023-02-12T14:03:20.300Z,99443.63
2023-02-12T14:06:14.086Z,99441.86
2023-02-12T14:08:55.778Z,99439.29
2023-02-12T14:11:32.268Z,99439.20
2023-02-12T14:14:11.354Z,99440.27
2023-02-12T14:16:47.767Z,99438.61
2023-02-12T14:19:56.224Z,99436.90
2023-02-12T14:23:04.516Z,99433.56
2023-02-12T14:25:46.677Z,99435.63
2023-02-12T14:28:31.414Z,99436.71
2023-02-12T14:31:40.319Z,99438.56
2023-02-12T14:34:46.192Z,99433.77
2023-02-12T14:37:43.358Z,99427.26
2023-02-12T14:40:46.689Z,99425.99
2023-02-12T14:44:00.341Z,99428.10
2023-02-12T14:46:57.502Z,99432.81
2023-02-12T14:49:37.905Z,99429.05
2023-02-12T14:52:23.529Z,99429.61
2023-02-12T14:55:08.625Z,99431.08
2023-02-12T14:57:48.995Z,99436.13
2023-02-12T15:00:34.053Z,99431.62
2023-02-12T15:03:23.966Z,99432.05
2023-02-12T15:06:18.039Z,99427.30
2023-02-12T15:08:56.437Z,99427.48
2023-02-12T15:11:46.460Z,99426.77
2023-02-12T15:14:23.271Z,99434.27
2023-02-12T15:17:04.991Z,99442.84
2023-02-12T15:19:45.459Z,99446.68
2023-02-12T15:22:32.441Z,99446.73
2023-02-12T15:25:27.266Z,99447.85
2023-02-12T15:28:02.446Z,99444.86
2023-02-12T15:30:38.215Z,99441.77
2023-02-12T15:33:25.152Z,99445.35
2023-02-12T15:35:58.597Z,99447.86
2023-02-12T15:38:36.424Z,99448.41
2023-02-12T15:41:09.885Z,99446.25
2023-02-12T15:43:58.390Z,99445.45
2023-02-12T15:46:34.387Z,99447.86
2023-02-12T15:49:22.613Z,99448.73
2023-02-12T15:51:54.754Z,99446.78
2023-02-12T15:54:28.983Z,99446.96
2023-02-12T15:57:02.255Z,99450.17
2023-02-12T15:59:34.346Z,99455.33
2023-02-12T16:02:19.081Z,99453.96
2023-02-12T16:04:54.435Z,99448.23
2023-02-12T16:07:27.368Z,99452.83
2023-02-12T16:09:59.914Z,99449.95
2023-02-12T16:12:37.929Z,99455.54
2023-02-12T16:15:24.481Z,99463.34
2023-02-12T16:17:58.733Z,99467.63
2023-02-12T16:20:32.285Z,99467.65
2023-02-12T16:23:10.702Z,99469.04
2023-02-12T16:25:46.603Z,99471.11
2023-02-12T16:28:25.760Z,99478.31
2023-02-12T16:31:12.685Z,99477.98
2023-02-12T16:33:50.061Z,99476.29
2023-02-12T16:36:33.643Z,99476.57
2023-02-12T16:39:08.829Z,99473.69
2023-02-12T16:42:00.999Z,99474.89
2023-02-12T16:44:34.434Z,99476.38
2023-02-12T16:47:07.253Z,99475.67
2023-02-12T16:49:39.385Z,99478.88
2023-02-12T16:52:35.206Z,99473.17
2023-02-12T16:55:14.586Z,99472.21
2023-02-12T16:57:51.095Z,99479.05
2023-02-12T17:00:26.451Z,99477.35
2023-02-12T17:02:59.364Z,99478.69
2023-02-12T17:05:31.362Z,99482.55
2023-02-12T17:08:03.480Z,99485.60
2023-02-12T17:10:35.477Z,99489.63
2023-02-12T17:13:08.209Z,99489.89
2023-02-12T17:15:42.984Z,99487.95
2023-02-12T17:18:15.981Z,99491.34
2023-02-12T17:20:53.537Z,99494.14
2023-02-12T17:23:28.656Z,99491.33
2023-02-12T17:26:02.556Z,99486.15
2023-02-12T17:28:34.639Z,99486.32
2023-02-12T17:31:07.904Z,99484.70
2023-02-12T17:33:40.016Z,99488.04
2023-02-12T17:36:13.672Z,99488.84
2023-02-12T17:38:43.823Z,99493.06
2023-02-12T17:41:17.014Z,99494.86
2023-02-12T17:43:50.362Z,99496.33
2023-02-12T17:46:26.786Z,99496.88
2023-02-12T17:48:59.855Z,99491.21
2023-02-12T17:51:33.344Z,99485.18
2023-02-12T17:54:06.280Z,99488.38
2023-02-12T17:56:38.396Z,99486.93
2023-02-12T17:59:16.787Z,99495.73
2023-02-12T18:01:49.014Z,99492.39
2023-02-12T18:04:23.125Z,99489.37
2023-02-12T18:06:55.618Z,99493.92
2023-02-12T18:09:30.228Z,99497.89
2023-02-12T18:12:02.636Z,99497.89
2023-02-12T18:14:34.776Z,99501.13
2023-02-12T18:17:06.845Z,99501.02
2023-02-12T18:19:39.057Z,99498.58
2023-02-12T18:22:12.425Z,99498.30
2023-02-12T18:24:45.578Z,99493.01
2023-02-12T18:27:19.005Z,99494.41
2023-02-12T18:29:51.566Z,99492.40
2023-02-12T18:32:26.977Z,99493.61
2023-02-12T18:35:01.922Z,99496.18
2023-02-12T18:37:35.577Z,99494.36
2023-02-12T18:40:09.356Z,99497.08
2023-02-12T18:42:40.146Z,99502.02
2023-02-12T18:45:13.728Z,99500.84
2023-02-12T18:47:45.985Z,99493.09
2023-02-12T18:50:19.670Z,99494.40
2023-02-12T18:52:51.775Z,99497.35
2023-02-12T18:55:24.966Z,99493.35
2023-02-12T18:57:57.051Z,99492.85
2023-02-12T19:00:29.475Z,99497.98
2023-02-12T19:03:01.899Z,99498.63
2023-02-12T19:05:34.331Z,99495.01
2023-02-12T19:08:06.765Z,99493.95
2023-02-12T19:10:47.780Z,99495.92
2023-02-12T19:13:23.493Z,99495.10
2023-02-12T19:15:55.884Z,99494.21
2023-02-12T19:18:28.365Z,99490.09
2023-02-12T19:21:01.583Z,99487.95
2023-02-12T19:23:34.881Z,99485.73
2023-02-12T19:26:09.051Z,99480.90
2023-02-12T19:28:42.033Z,99478.16
2023-02-12T19:31:15.865Z,99473.83
2023-02-12T19:33:49.449Z,99465.46
2023-02-12T19:36:22.792Z,99452.89
2023-02-12T19:38:55.404Z,99460.46
2023-02-12T19:41:29.984Z,99460.84
2023-02-12T19:44:03.686Z,99463.14
2023-02-12T19:46:39.120Z,99457.20
2023-02-12T19:49:17.216Z,99462.42
2023-02-12T19:51:52.358Z,99462.02
2023-02-12T19:54:26.142Z,99465.24
2023-02-12T19:56:58.416Z,99463.03
2023-02-12T19:59:31.515Z,99466.41
2023-02-12T20:02:05.134Z,99464.58
2023-02-12T20:04:37.819Z,99466.26
2023-02-12T20:07:10.259Z,99467.10
2023-02-12T20:09:44.355Z,99467.66
2023-02-12T20:12:16.715Z,99465.62
2023-02-12T20:14:49.559Z,99463.95
2023-02-12T20:17:24.567Z,99460.20
2023-02-12T20:19:57.318Z,99466.87
2023-02-12T20:22:29.549Z,99469.42
2023-02-12T20:25:01.882Z,99474.52
2023-02-12T20:27:37.021Z,99470.64
2023-02-12T20:30:13.176Z,99468.13
2023-02-12T20:32:45.932Z,99469.64
2023-02-12T20:35:19.791Z,99470.24
2023-02-12T20:37:52.133Z,99465.25
2023-02-12T20:40:24.690Z,99462.71
2023-02-12T20:42:56.806Z,99468.38
2023-02-12T20:45:29.598Z,99471.54
2023-02-12T20:48:02.306Z,99473.08
2023-02-12T20:50:34.648Z,99469.42
2023-02-12T20:53:07.696Z,99468.55
2023-02-12T20:55:39.764Z,99470.28
2023-02-12T20:58:11.884Z,99472.30
2023-02-12T21:00:43.975Z,99475.20
2023-02-12T21:03:16.014Z,99472.23
2023-02-12T21:05:49.116Z,99475.30
2023-02-12T21:08:21.717Z,99476.42
2023-02-12T21:11:01.401Z,99479.42
2023-02-12T21:13:35.412Z,99478.34
2023-02-12T21:16:14.154Z,99478.18
2023-02-12T21:18:46.949Z,99475.85
2023-02-12T21:21:21.968Z,99471.60
2023-02-12T21:23:55.951Z,99470.98
2023-02-12T21:26:30.899Z,99469.66
2023-02-12T21:29:05.143Z,99472.10
2023-02-12T21:31:41.315Z,99473.18
2023-02-12T21:34:16.917Z,99468.77
2023-02-12T21:36:50.998Z,99470.19
2023-02-12T21:39:26.712Z,99467.23
2023-02-12T21:42:00.391Z,99457.23
2023-02-12T21:44:35.773Z,99455.02
2023-02-12T21:47:09.012Z,99453.92
2023-02-12T21:49:43.783Z,99456.46
2023-02-12T21:52:15.849Z,99459.10
2023-02-12T21:54:51.612Z,99463.38
2023-02-12T21:57:23.577Z,99466.23
2023-02-12T21:59:55.647Z,99465.05
2023-02-12T22:02:27.762Z,99468.77
2023-02-12T22:04:59.813Z,99473.88
2023-02-12T22:07:31.921Z,99472.45
2023-02-12T22:10:04.057Z,99470.86
2023-02-12T22:12:38.179Z,99474.47
2023-02-12T22:15:09.114Z,99475.53
2023-02-12T22:17:41.113Z,99482.73
2023-02-12T22:20:14.403Z,99480.02
2023-02-12T22:22:46.640Z,99477.30
2023-02-12T22:25:18.880Z,99481.41
2023-02-12T22:27:51.049Z,99477.89
2023-02-12T22:30:24.747Z,99476.23
2023-02-12T22:32:56.767Z,99476.12
2023-02-12T22:35:28.767Z,99471.95
2023-02-12T22:38:01.176Z,99472.77
2023-02-12T22:40:33.549Z,99474.75
2023-02-12T22:43:05.699Z,99472.73
2023-02-12T22:45:38.013Z,99470.04
2023-02-12T22:48:12.107Z,99470.38
2023-02-12T22:50:44.167Z,99470.34
2023-02-12T22:53:16.643Z,99468.58
2023-02-12T22:55:49.644Z,99471.95
2023-02-12T22:58:23.664Z,99474.88
2023-02-12T23:00:56.249Z,99472.19
2023-02-12T23:03:31.911Z,99470.80
2023-02-12T23:06:07.398Z,99469.63
2023-02-12T23:08:39.898Z,99467.39
2023-02-12T23:11:12.455Z,99467.49
2023-02-12T23:13:44.749Z,99465.11
2023-02-12T23:16:16.736Z,99463.45
2023-02-12T23:18:49.471Z,99460.93
2023-02-12T23:21:21.475Z,99462.41
2023-02-12T23:23:53.824Z,99461.09
2023-02-12T23:26:29.315Z,99465.19
2023-02-12T23:29:01.529Z,99464.48
2023-02-12T23:31:34.027Z,99466.77
2023-02-12T23:34:06.514Z,99469.98
2023-02-12T23:36:38.718Z,99470.45
2023-02-12T23:39:12.144Z,99470.56
2023-02-12T23:41:44.234Z,99476.00
2023-02-12T23:44:16.627Z,99470.67
2023-02-12T23:46:52.143Z,99466.77
2023-02-12T23:49:24.768Z,99465.98
2023-02-12T23:51:56.913Z,99467.39
2023-02-12T23:54:29.244Z,99465.77
2023-02-12T23:57:02.785Z,99467.83
2023-02-12T23:59:34.760Z,99463.05
